sensor_id;sensor_type;location;lat;lon;timestamp;P1;durP1;ratioP1;P2;durP2;ratioP2
22449;SDS011;11392;57.390;-2.468;2023-08-12T00:01:10;11.50;;;3.42;;
22449;SDS011;11392;57.390;-2.468;2023-08-12T00:03:37;9.70;;;3.38;;
22449;SDS011;11392;57.390;-2.468;2023-08-12T00:06:04;8.60;;;3.30;;
22449;SDS011;11392;57.390;-2.468;2023-08-12T00:08:31;9.20;;;3.08;;
22449;SDS011;11392;57.390;-2.468;2023-08-12T00:10:58;9.60;;;3.33;;
22449;SDS011;11392;57.390;-2.468;2023-08-12T00:13:25;9.48;;;2.65;;
22449;SDS011;11392;57.390;-2.468;2023-08-12T00:15:52;12.20;;;3.20;;
22449;SDS011;11392;57.390;-2.468;2023-08-12T00:18:19;9.10;;;3.13;;
22449;SDS011;11392;57.390;-2.468;2023-08-12T00:20:46;10.00;;;3.38;;
22449;SDS011;11392;57.390;-2.468;2023-08-12T00:23:14;9.35;;;3.92;;
22449;SDS011;11392;57.390;-2.468;2023-08-12T00:25:41;10.23;;;2.90;;
22449;SDS011;11392;57.390;-2.468;2023-08-12T00:28:08;8.70;;;3.60;;
22449;SDS011;11392;57.390;-2.468;2023-08-12T00:30:36;10.23;;;4.00;;
22449;SDS011;11392;57.390;-2.468;2023-08-12T00:33:03;12.10;;;4.20;;
22449;SDS011;11392;57.390;-2.468;2023-08-12T00:35:31;12.52;;;3.75;;
22449;SDS011;11392;57.390;-2.468;2023-08-12T00:37:58;8.10;;;3.47;;
22449;SDS011;11392;57.390;-2.468;2023-08-12T00:40:25;10.38;;;3.25;;
22449;SDS011;11392;57.390;-2.468;2023-08-12T00:42:53;10.88;;;3.35;;
22449;SDS011;11392;57.390;-2.468;2023-08-12T00:45:20;10.18;;;4.22;;
22449;SDS011;11392;57.390;-2.468;2023-08-12T00:47:47;11.10;;;3.67;;
22449;SDS011;11392;57.390;-2.468;2023-08-12T00:50:14;10.98;;;3.60;;
22449;SDS011;11392;57.390;-2.468;2023-08-12T00:52:42;12.05;;;3.70;;
22449;SDS011;11392;57.390;-2.468;2023-08-12T00:55:09;9.35;;;3.40;;
22449;SDS011;11392;57.390;-2.468;2023-08-12T00:57:37;11.68;;;3.78;;
22449;SDS011;11392;57.390;-2.468;2023-08-12T01:00:05;11.02;;;3.30;;
22449;SDS011;11392;57.390;-2.468;2023-08-12T01:02:33;11.82;;;3.53;;
22449;SDS011;11392;57.390;-2.468;2023-08-12T01:05:00;11.57;;;3.83;;
22449;SDS011;11392;57.390;-2.468;2023-08-12T01:07:27;11.85;;;4.10;;
22449;SDS011;11392;57.390;-2.468;2023-08-12T01:09:54;10.38;;;3.55;;
22449;SDS011;11392;57.390;-2.468;2023-08-12T01:15:15;9.75;;;4.45;;
22449;SDS011;11392;57.390;-2.468;2023-08-12T01:17:48;8.50;;;3.03;;
22449;SDS011;11392;57.390;-2.468;2023-08-12T01:20:21;9.07;;;3.55;;
22449;SDS011;11392;57.390;-2.468;2023-08-12T01:22:55;13.52;;;3.10;;
22449;SDS011;11392;57.390;-2.468;2023-08-12T01:25:26;9.30;;;3.40;;
22449;SDS011;11392;57.390;-2.468;2023-08-12T01:27:54;6.97;;;2.67;;
22449;SDS011;11392;57.390;-2.468;2023-08-12T01:30:22;9.65;;;3.70;;
22449;SDS011;11392;57.390;-2.468;2023-08-12T01:32:57;11.60;;;4.20;;
22449;SDS011;11392;57.390;-2.468;2023-08-12T01:35:49;13.90;;;4.28;;
22449;SDS011;11392;57.390;-2.468;2023-08-12T01:38:20;13.15;;;3.83;;
22449;SDS011;11392;57.390;-2.468;2023-08-12T01:40:50;11.38;;;3.53;;
22449;SDS011;11392;57.390;-2.468;2023-08-12T01:43:18;10.70;;;3.78;;
22449;SDS011;11392;57.390;-2.468;2023-08-12T01:45:45;13.38;;;4.05;;
22449;SDS011;11392;57.390;-2.468;2023-08-12T01:48:12;11.18;;;4.38;;
22449;SDS011;11392;57.390;-2.468;2023-08-12T01:50:40;17.85;;;5.68;;
22449;SDS011;11392;57.390;-2.468;2023-08-12T01:53:13;20.08;;;5.25;;
22449;SDS011;11392;57.390;-2.468;2023-08-12T01:55:42;15.25;;;4.57;;
22449;SDS011;11392;57.390;-2.468;2023-08-12T01:58:10;15.45;;;4.80;;
22449;SDS011;11392;57.390;-2.468;2023-08-12T02:00:37;15.43;;;4.82;;
22449;SDS011;11392;57.390;-2.468;2023-08-12T02:03:04;10.88;;;4.82;;
22449;SDS011;11392;57.390;-2.468;2023-08-12T02:05:32;11.27;;;3.67;;
22449;SDS011;11392;57.390;-2.468;2023-08-12T02:07:59;16.42;;;5.15;;
22449;SDS011;11392;57.390;-2.468;2023-08-12T02:10:27;16.60;;;4.97;;
22449;SDS011;11392;57.390;-2.468;2023-08-12T02:12:54;13.75;;;4.63;;
22449;SDS011;11392;57.390;-2.468;2023-08-12T02:15:21;16.55;;;4.72;;
22449;SDS011;11392;57.390;-2.468;2023-08-12T02:17:48;17.77;;;5.22;;
22449;SDS011;11392;57.390;-2.468;2023-08-12T02:20:16;19.55;;;5.03;;
22449;SDS011;11392;57.390;-2.468;2023-08-12T02:22:43;15.85;;;5.20;;
22449;SDS011;11392;57.390;-2.468;2023-08-12T02:25:10;18.98;;;5.20;;
22449;SDS011;11392;57.390;-2.468;2023-08-12T02:27:37;14.18;;;4.60;;
22449;SDS011;11392;57.390;-2.468;2023-08-12T02:30:04;12.60;;;4.43;;
22449;SDS011;11392;57.390;-2.468;2023-08-12T02:32:32;18.83;;;4.93;;
22449;SDS011;11392;57.390;-2.468;2023-08-12T02:34:59;21.02;;;5.38;;
22449;SDS011;11392;57.390;-2.468;2023-08-12T02:37:26;16.23;;;4.68;;
22449;SDS011;11392;57.390;-2.468;2023-08-12T02:39:53;14.15;;;4.60;;
22449;SDS011;11392;57.390;-2.468;2023-08-12T02:42:20;20.90;;;6.38;;
22449;SDS011;11392;57.390;-2.468;2023-08-12T02:44:47;16.67;;;5.25;;
22449;SDS011;11392;57.390;-2.468;2023-08-12T02:47:14;14.15;;;4.50;;
22449;SDS011;11392;57.390;-2.468;2023-08-12T02:49:41;18.05;;;6.05;;
22449;SDS011;11392;57.390;-2.468;2023-08-12T02:52:10;14.75;;;5.10;;
22449;SDS011;11392;57.390;-2.468;2023-08-12T02:54:37;16.98;;;4.68;;
22449;SDS011;11392;57.390;-2.468;2023-08-12T02:57:04;17.65;;;4.78;;
22449;SDS011;11392;57.390;-2.468;2023-08-12T02:59:31;17.75;;;4.93;;
22449;SDS011;11392;57.390;-2.468;2023-08-12T03:01:58;14.48;;;4.60;;
22449;SDS011;11392;57.390;-2.468;2023-08-12T03:04:26;18.48;;;4.65;;
22449;SDS011;11392;57.390;-2.468;2023-08-12T03:06:53;17.80;;;5.07;;
22449;SDS011;11392;57.390;-2.468;2023-08-12T03:09:20;17.77;;;4.75;;
22449;SDS011;11392;57.390;-2.468;2023-08-12T03:11:47;22.48;;;6.70;;
22449;SDS011;11392;57.390;-2.468;2023-08-12T03:14:14;17.10;;;6.30;;
22449;SDS011;11392;57.390;-2.468;2023-08-12T03:16:41;17.23;;;5.50;;
22449;SDS011;11392;57.390;-2.468;2023-08-12T03:19:08;24.05;;;5.80;;
22449;SDS011;11392;57.390;-2.468;2023-08-12T03:21:35;23.20;;;5.63;;
22449;SDS011;11392;57.390;-2.468;2023-08-12T03:24:02;22.55;;;5.47;;
22449;SDS011;11392;57.390;-2.468;2023-08-12T03:26:29;17.67;;;4.68;;
22449;SDS011;11392;57.390;-2.468;2023-08-12T03:28:56;18.33;;;6.30;;
22449;SDS011;11392;57.390;-2.468;2023-08-12T03:31:23;29.55;;;7.53;;
22449;SDS011;11392;57.390;-2.468;2023-08-12T03:33:50;22.35;;;5.82;;
22449;SDS011;11392;57.390;-2.468;2023-08-12T03:36:18;18.02;;;5.90;;
22449;SDS011;11392;57.390;-2.468;2023-08-12T03:38:45;22.35;;;6.20;;
22449;SDS011;11392;57.390;-2.468;2023-08-12T03:41:12;25.50;;;6.25;;
22449;SDS011;11392;57.390;-2.468;2023-08-12T03:43:39;19.50;;;5.45;;
22449;SDS011;11392;57.390;-2.468;2023-08-12T03:46:06;17.20;;;5.32;;
22449;SDS011;11392;57.390;-2.468;2023-08-12T03:48:33;15.15;;;5.32;;
22449;SDS011;11392;57.390;-2.468;2023-08-12T03:51:00;19.40;;;5.35;;
22449;SDS011;11392;57.390;-2.468;2023-08-12T03:53:27;13.93;;;4.50;;
22449;SDS011;11392;57.390;-2.468;2023-08-12T03:55:54;18.88;;;4.95;;
22449;SDS011;11392;57.390;-2.468;2023-08-12T03:58:21;19.13;;;5.75;;
22449;SDS011;11392;57.390;-2.468;2023-08-12T04:00:48;15.90;;;5.40;;
22449;SDS011;11392;57.390;-2.468;2023-08-12T04:03:15;18.30;;;5.57;;
22449;SDS011;11392;57.390;-2.468;2023-08-12T04:05:49;15.18;;;4.72;;
22449;SDS011;11392;57.390;-2.468;2023-08-12T04:08:21;16.58;;;5.32;;
22449;SDS011;11392;57.390;-2.468;2023-08-12T04:10:49;15.95;;;4.68;;
22449;SDS011;11392;57.390;-2.468;2023-08-12T04:13:17;18.35;;;4.60;;
22449;SDS011;11392;57.390;-2.468;2023-08-12T04:15:47;10.88;;;4.40;;
22449;SDS011;11392;57.390;-2.468;2023-08-12T04:18:16;11.30;;;4.15;;
22449;SDS011;11392;57.390;-2.468;2023-08-12T04:20:44;15.60;;;4.75;;
22449;SDS011;11392;57.390;-2.468;2023-08-12T04:23:13;10.30;;;4.30;;
22449;SDS011;11392;57.390;-2.468;2023-08-12T04:25:42;11.63;;;4.28;;
22449;SDS011;11392;57.390;-2.468;2023-08-12T04:28:13;12.52;;;4.20;;
22449;SDS011;11392;57.390;-2.468;2023-08-12T04:30:42;13.32;;;3.88;;
22449;SDS011;11392;57.390;-2.468;2023-08-12T04:33:09;10.23;;;4.28;;
22449;SDS011;11392;57.390;-2.468;2023-08-12T04:35:36;10.13;;;2.92;;
22449;SDS011;11392;57.390;-2.468;2023-08-12T04:38:04;15.15;;;4.38;;
22449;SDS011;11392;57.390;-2.468;2023-08-12T04:40:32;7.95;;;3.17;;
22449;SDS011;11392;57.390;-2.468;2023-08-12T04:42:59;10.75;;;3.88;;
22449;SDS011;11392;57.390;-2.468;2023-08-12T04:45:26;12.90;;;4.22;;
22449;SDS011;11392;57.390;-2.468;2023-08-12T04:47:54;10.80;;;4.40;;
22449;SDS011;11392;57.390;-2.468;2023-08-12T04:50:22;8.77;;;3.60;;
22449;SDS011;11392;57.390;-2.468;2023-08-12T04:52:49;15.98;;;5.22;;
22449;SDS011;11392;57.390;-2.468;2023-08-12T04:55:16;12.13;;;3.92;;
22449;SDS011;11392;57.390;-2.468;2023-08-12T04:57:43;8.20;;;3.28;;
22449;SDS011;11392;57.390;-2.468;2023-08-12T05:00:10;12.20;;;3.72;;
22449;SDS011;11392;57.390;-2.468;2023-08-12T05:02:38;12.95;;;4.28;;
22449;SDS011;11392;57.390;-2.468;2023-08-12T05:05:06;10.60;;;3.70;;
22449;SDS011;11392;57.390;-2.468;2023-08-12T05:07:33;18.52;;;4.90;;
22449;SDS011;11392;57.390;-2.468;2023-08-12T05:10:00;17.20;;;4.38;;
22449;SDS011;11392;57.390;-2.468;2023-08-12T05:12:27;17.45;;;4.82;;
22449;SDS011;11392;57.390;-2.468;2023-08-12T05:14:54;11.90;;;4.00;;
22449;SDS011;11392;57.390;-2.468;2023-08-12T05:17:21;20.50;;;5.53;;
22449;SDS011;11392;57.390;-2.468;2023-08-12T05:19:48;18.30;;;5.90;;
22449;SDS011;11392;57.390;-2.468;2023-08-12T05:22:16;18.05;;;5.30;;
22449;SDS011;11392;57.390;-2.468;2023-08-12T05:24:43;16.02;;;4.97;;
22449;SDS011;11392;57.390;-2.468;2023-08-12T05:27:10;20.48;;;5.20;;
22449;SDS011;11392;57.390;-2.468;2023-08-12T05:29:37;15.23;;;4.57;;
22449;SDS011;11392;57.390;-2.468;2023-08-12T05:32:04;9.55;;;4.03;;
22449;SDS011;11392;57.390;-2.468;2023-08-12T05:34:31;18.48;;;5.35;;
22449;SDS011;11392;57.390;-2.468;2023-08-12T05:36:58;14.07;;;5.22;;
22449;SDS011;11392;57.390;-2.468;2023-08-12T05:39:25;13.02;;;4.68;;
22449;SDS011;11392;57.390;-2.468;2023-08-12T05:41:52;16.73;;;4.03;;
22449;SDS011;11392;57.390;-2.468;2023-08-12T05:44:19;16.17;;;5.28;;
22449;SDS011;11392;57.390;-2.468;2023-08-12T05:46:46;18.55;;;5.22;;
22449;SDS011;11392;57.390;-2.468;2023-08-12T05:49:13;14.32;;;4.63;;
22449;SDS011;11392;57.390;-2.468;2023-08-12T05:51:40;10.93;;;4.18;;
22449;SDS011;11392;57.390;-2.468;2023-08-12T05:54:07;12.32;;;3.88;;
22449;SDS011;11392;57.390;-2.468;2023-08-12T05:56:34;11.52;;;3.70;;
22449;SDS011;11392;57.390;-2.468;2023-08-12T05:59:01;10.57;;;3.92;;
22449;SDS011;11392;57.390;-2.468;2023-08-12T06:01:28;11.73;;;3.97;;
22449;SDS011;11392;57.390;-2.468;2023-08-12T06:03:55;9.80;;;3.35;;
22449;SDS011;11392;57.390;-2.468;2023-08-12T06:06:22;7.80;;;2.95;;
22449;SDS011;11392;57.390;-2.468;2023-08-12T06:08:49;15.38;;;4.78;;
22449;SDS011;11392;57.390;-2.468;2023-08-12T06:11:17;15.25;;;4.78;;
22449;SDS011;11392;57.390;-2.468;2023-08-12T06:13:45;17.08;;;4.50;;
22449;SDS011;11392;57.390;-2.468;2023-08-12T06:16:12;15.35;;;4.80;;
22449;SDS011;11392;57.390;-2.468;2023-08-12T06:18:39;15.15;;;4.90;;
22449;SDS011;11392;57.390;-2.468;2023-08-12T06:21:06;17.02;;;5.22;;
22449;SDS011;11392;57.390;-2.468;2023-08-12T06:23:33;12.80;;;4.78;;
22449;SDS011;11392;57.390;-2.468;2023-08-12T06:26:00;12.73;;;4.10;;
22449;SDS011;11392;57.390;-2.468;2023-08-12T06:28:27;12.30;;;4.10;;
22449;SDS011;11392;57.390;-2.468;2023-08-12T06:30:54;10.90;;;4.30;;
22449;SDS011;11392;57.390;-2.468;2023-08-12T06:33:21;19.00;;;5.72;;
22449;SDS011;11392;57.390;-2.468;2023-08-12T06:35:49;11.45;;;4.25;;
22449;SDS011;11392;57.390;-2.468;2023-08-12T06:38:17;14.93;;;5.05;;
22449;SDS011;11392;57.390;-2.468;2023-08-12T06:40:44;9.35;;;3.42;;
22449;SDS011;11392;57.390;-2.468;2023-08-12T06:43:11;15.80;;;4.22;;
22449;SDS011;11392;57.390;-2.468;2023-08-12T06:45:38;9.32;;;3.53;;
22449;SDS011;11392;57.390;-2.468;2023-08-12T06:48:05;10.77;;;3.33;;
22449;SDS011;11392;57.390;-2.468;2023-08-12T06:50:32;10.40;;;3.53;;
22449;SDS011;11392;57.390;-2.468;2023-08-12T06:52:59;12.70;;;3.50;;
22449;SDS011;11392;57.390;-2.468;2023-08-12T06:55:26;13.25;;;3.42;;
22449;SDS011;11392;57.390;-2.468;2023-08-12T06:57:53;12.57;;;4.32;;
22449;SDS011;11392;57.390;-2.468;2023-08-12T07:00:20;11.63;;;3.60;;
22449;SDS011;11392;57.390;-2.468;2023-08-12T07:02:48;10.98;;;4.03;;
22449;SDS011;11392;57.390;-2.468;2023-08-12T07:05:15;12.85;;;3.88;;
22449;SDS011;11392;57.390;-2.468;2023-08-12T07:07:42;14.27;;;3.90;;
22449;SDS011;11392;57.390;-2.468;2023-08-12T07:10:09;13.38;;;4.32;;
22449;SDS011;11392;57.390;-2.468;2023-08-12T07:12:37;12.82;;;3.65;;
22449;SDS011;11392;57.390;-2.468;2023-08-12T07:15:04;12.48;;;4.55;;
22449;SDS011;11392;57.390;-2.468;2023-08-12T07:17:31;9.55;;;3.60;;
22449;SDS011;11392;57.390;-2.468;2023-08-12T07:19:58;10.88;;;4.05;;
22449;SDS011;11392;57.390;-2.468;2023-08-12T07:22:29;9.27;;;3.42;;
22449;SDS011;11392;57.390;-2.468;2023-08-12T07:24:57;11.63;;;3.33;;
22449;SDS011;11392;57.390;-2.468;2023-08-12T07:27:26;11.95;;;4.05;;
22449;SDS011;11392;57.390;-2.468;2023-08-12T07:29:54;12.27;;;3.88;;
22449;SDS011;11392;57.390;-2.468;2023-08-12T07:32:21;15.48;;;4.82;;
22449;SDS011;11392;57.390;-2.468;2023-08-12T07:34:48;12.32;;;3.60;;
22449;SDS011;11392;57.390;-2.468;2023-08-12T07:37:15;11.25;;;3.72;;
22449;SDS011;11392;57.390;-2.468;2023-08-12T07:39:42;11.57;;;4.18;;
22449;SDS011;11392;57.390;-2.468;2023-08-12T07:42:10;11.73;;;3.92;;
22449;SDS011;11392;57.390;-2.468;2023-08-12T07:44:37;11.40;;;3.42;;
22449;SDS011;11392;57.390;-2.468;2023-08-12T07:47:04;6.68;;;2.78;;
22449;SDS011;11392;57.390;-2.468;2023-08-12T07:49:31;10.50;;;3.63;;
22449;SDS011;11392;57.390;-2.468;2023-08-12T07:51:59;8.68;;;3.15;;
22449;SDS011;11392;57.390;-2.468;2023-08-12T07:54:26;8.10;;;3.22;;
22449;SDS011;11392;57.390;-2.468;2023-08-12T07:56:53;9.23;;;3.22;;
22449;SDS011;11392;57.390;-2.468;2023-08-12T07:59:21;13.95;;;3.25;;
22449;SDS011;11392;57.390;-2.468;2023-08-12T08:01:48;10.38;;;3.03;;
22449;SDS011;11392;57.390;-2.468;2023-08-12T08:04:15;8.00;;;3.13;;
22449;SDS011;11392;57.390;-2.468;2023-08-12T08:06:42;11.88;;;3.83;;
22449;SDS011;11392;57.390;-2.468;2023-08-12T08:09:09;8.10;;;2.75;;
22449;SDS011;11392;57.390;-2.468;2023-08-12T08:11:37;12.45;;;3.42;;
22449;SDS011;11392;57.390;-2.468;2023-08-12T08:14:04;9.13;;;3.60;;
22449;SDS011;11392;57.390;-2.468;2023-08-12T08:16:31;11.65;;;3.47;;
22449;SDS011;11392;57.390;-2.468;2023-08-12T08:18:58;10.05;;;2.92;;
22449;SDS011;11392;57.390;-2.468;2023-08-12T08:21:25;10.68;;;3.20;;
22449;SDS011;11392;57.390;-2.468;2023-08-12T08:23:52;10.23;;;3.47;;
22449;SDS011;11392;57.390;-2.468;2023-08-12T08:26:19;8.43;;;3.90;;
22449;SDS011;11392;57.390;-2.468;2023-08-12T08:28:46;9.32;;;3.10;;
22449;SDS011;11392;57.390;-2.468;2023-08-12T08:31:14;11.35;;;3.60;;
22449;SDS011;11392;57.390;-2.468;2023-08-12T08:33:41;8.52;;;3.20;;
22449;SDS011;11392;57.390;-2.468;2023-08-12T08:36:10;12.13;;;3.22;;
22449;SDS011;11392;57.390;-2.468;2023-08-12T08:38:37;10.15;;;3.35;;
22449;SDS011;11392;57.390;-2.468;2023-08-12T08:41:05;9.25;;;3.30;;
22449;SDS011;11392;57.390;-2.468;2023-08-12T08:43:35;9.75;;;3.05;;
22449;SDS011;11392;57.390;-2.468;2023-08-12T08:46:04;7.75;;;2.90;;
22449;SDS011;11392;57.390;-2.468;2023-08-12T08:48:33;9.38;;;3.47;;
22449;SDS011;11392;57.390;-2.468;2023-08-12T08:51:05;7.25;;;3.00;;
22449;SDS011;11392;57.390;-2.468;2023-08-12T08:53:34;9.25;;;3.25;;
22449;SDS011;11392;57.390;-2.468;2023-08-12T08:56:05;11.73;;;3.25;;
22449;SDS011;11392;57.390;-2.468;2023-08-12T08:58:40;12.85;;;3.30;;
22449;SDS011;11392;57.390;-2.468;2023-08-12T09:01:07;8.07;;;3.05;;
22449;SDS011;11392;57.390;-2.468;2023-08-12T09:03:35;9.75;;;3.03;;
22449;SDS011;11392;57.390;-2.468;2023-08-12T09:06:05;12.63;;;3.75;;
22449;SDS011;11392;57.390;-2.468;2023-08-12T09:08:32;10.50;;;3.22;;
22449;SDS011;11392;57.390;-2.468;2023-08-12T09:11:00;12.50;;;3.92;;
22449;SDS011;11392;57.390;-2.468;2023-08-12T09:13:29;9.18;;;2.88;;
22449;SDS011;11392;57.390;-2.468;2023-08-12T09:15:56;10.18;;;4.10;;
22449;SDS011;11392;57.390;-2.468;2023-08-12T09:18:23;13.68;;;3.63;;
22449;SDS011;11392;57.390;-2.468;2023-08-12T09:20:53;13.15;;;3.33;;
22449;SDS011;11392;57.390;-2.468;2023-08-12T09:23:20;8.75;;;3.40;;
22449;SDS011;11392;57.390;-2.468;2023-08-12T09:25:47;9.63;;;3.63;;
22449;SDS011;11392;57.390;-2.468;2023-08-12T09:28:14;10.65;;;3.70;;
22449;SDS011;11392;57.390;-2.468;2023-08-12T09:30:41;10.85;;;2.97;;
22449;SDS011;11392;57.390;-2.468;2023-08-12T09:33:08;14.52;;;4.22;;
22449;SDS011;11392;57.390;-2.468;2023-08-12T09:35:38;9.18;;;2.83;;
22449;SDS011;11392;57.390;-2.468;2023-08-12T09:38:10;11.68;;;3.38;;
22449;SDS011;11392;57.390;-2.468;2023-08-12T09:40:39;12.82;;;3.58;;
22449;SDS011;11392;57.390;-2.468;2023-08-12T09:43:07;11.88;;;3.75;;
22449;SDS011;11392;57.390;-2.468;2023-08-12T09:45:35;9.82;;;3.35;;
22449;SDS011;11392;57.390;-2.468;2023-08-12T09:48:02;9.70;;;3.33;;
22449;SDS011;11392;57.390;-2.468;2023-08-12T09:50:30;12.45;;;3.35;;
22449;SDS011;11392;57.390;-2.468;2023-08-12T09:52:57;12.70;;;3.25;;
22449;SDS011;11392;57.390;-2.468;2023-08-12T09:55:24;8.95;;;3.33;;
22449;SDS011;11392;57.390;-2.468;2023-08-12T09:57:52;11.82;;;3.58;;
22449;SDS011;11392;57.390;-2.468;2023-08-12T10:00:21;8.77;;;2.85;;
22449;SDS011;11392;57.390;-2.468;2023-08-12T10:02:50;9.38;;;2.65;;
22449;SDS011;11392;57.390;-2.468;2023-08-12T10:05:19;10.23;;;2.20;;
22449;SDS011;11392;57.390;-2.468;2023-08-12T10:07:53;5.22;;;2.15;;
22449;SDS011;11392;57.390;-2.468;2023-08-12T10:10:21;7.55;;;3.05;;
22449;SDS011;11392;57.390;-2.468;2023-08-12T10:12:51;5.50;;;2.50;;
22449;SDS011;11392;57.390;-2.468;2023-08-12T10:15:19;6.63;;;2.72;;
22449;SDS011;11392;57.390;-2.468;2023-08-12T10:17:47;11.48;;;3.45;;
22449;SDS011;11392;57.390;-2.468;2023-08-12T10:20:21;8.02;;;2.92;;
22449;SDS011;11392;57.390;-2.468;2023-08-12T10:22:52;10.85;;;3.22;;
22449;SDS011;11392;57.390;-2.468;2023-08-12T10:25:21;12.63;;;3.33;;
22449;SDS011;11392;57.390;-2.468;2023-08-12T10:27:48;9.93;;;3.05;;
22449;SDS011;11392;57.390;-2.468;2023-08-12T10:30:15;10.15;;;2.83;;
22449;SDS011;11392;57.390;-2.468;2023-08-12T10:32:42;11.48;;;3.83;;
22449;SDS011;11392;57.390;-2.468;2023-08-12T10:35:10;10.32;;;3.10;;
22449;SDS011;11392;57.390;-2.468;2023-08-12T10:37:37;9.43;;;2.90;;
22449;SDS011;11392;57.390;-2.468;2023-08-12T10:40:04;7.50;;;2.50;;
22449;SDS011;11392;57.390;-2.468;2023-08-12T10:45:11;6.18;;;2.60;;
22449;SDS011;11392;57.390;-2.468;2023-08-12T10:47:43;8.70;;;2.55;;
22449;SDS011;11392;57.390;-2.468;2023-08-12T10:50:21;9.30;;;3.47;;
22449;SDS011;11392;57.390;-2.468;2023-08-12T10:52:52;8.65;;;2.33;;
22449;SDS011;11392;57.390;-2.468;2023-08-12T10:55:24;6.68;;;2.30;;
22449;SDS011;11392;57.390;-2.468;2023-08-12T10:57:53;14.15;;;3.58;;
22449;SDS011;11392;57.390;-2.468;2023-08-12T11:00:23;6.78;;;3.15;;
22449;SDS011;11392;57.390;-2.468;2023-08-12T11:02:52;6.82;;;2.67;;
22449;SDS011;11392;57.390;-2.468;2023-08-12T11:05:20;7.65;;;2.50;;
22449;SDS011;11392;57.390;-2.468;2023-08-12T11:07:55;8.68;;;2.55;;
22449;SDS011;11392;57.390;-2.468;2023-08-12T11:10:33;8.50;;;2.72;;
22449;SDS011;11392;57.390;-2.468;2023-08-12T11:13:02;8.73;;;2.72;;
22449;SDS011;11392;57.390;-2.468;2023-08-12T11:15:34;6.13;;;2.85;;
22449;SDS011;11392;57.390;-2.468;2023-08-12T11:18:09;7.60;;;2.88;;
22449;SDS011;11392;57.390;-2.468;2023-08-12T11:20:40;10.35;;;3.40;;
22449;SDS011;11392;57.390;-2.468;2023-08-12T11:23:08;8.40;;;3.20;;
22449;SDS011;11392;57.390;-2.468;2023-08-12T11:25:40;6.82;;;2.60;;
22449;SDS011;11392;57.390;-2.468;2023-08-12T11:28:10;9.00;;;2.80;;
22449;SDS011;11392;57.390;-2.468;2023-08-12T11:30:39;8.48;;;3.08;;
22449;SDS011;11392;57.390;-2.468;2023-08-12T11:33:08;9.07;;;3.22;;
22449;SDS011;11392;57.390;-2.468;2023-08-12T11:35:36;8.60;;;3.63;;
22449;SDS011;11392;57.390;-2.468;2023-08-12T11:38:04;8.82;;;3.35;;
22449;SDS011;11392;57.390;-2.468;2023-08-12T11:40:33;7.50;;;3.10;;
22449;SDS011;11392;57.390;-2.468;2023-08-12T11:43:01;10.88;;;3.63;;
22449;SDS011;11392;57.390;-2.468;2023-08-12T11:45:32;7.93;;;2.80;;
22449;SDS011;11392;57.390;-2.468;2023-08-12T11:47:59;8.52;;;3.30;;
22449;SDS011;11392;57.390;-2.468;2023-08-12T11:50:27;10.27;;;3.60;;
22449;SDS011;11392;57.390;-2.468;2023-08-12T11:52:55;14.20;;;3.63;;
22449;SDS011;11392;57.390;-2.468;2023-08-12T11:55:23;9.65;;;3.53;;
22449;SDS011;11392;57.390;-2.468;2023-08-12T11:57:51;7.90;;;3.53;;
22449;SDS011;11392;57.390;-2.468;2023-08-12T12:00:18;9.57;;;3.75;;
22449;SDS011;11392;57.390;-2.468;2023-08-12T12:02:47;14.32;;;3.95;;
22449;SDS011;11392;57.390;-2.468;2023-08-12T12:05:15;7.72;;;3.67;;
22449;SDS011;11392;57.390;-2.468;2023-08-12T12:07:47;10.52;;;3.67;;
22449;SDS011;11392;57.390;-2.468;2023-08-12T12:10:28;7.00;;;3.47;;
22449;SDS011;11392;57.390;-2.468;2023-08-12T12:13:00;10.85;;;3.78;;
22449;SDS011;11392;57.390;-2.468;2023-08-12T12:15:28;13.23;;;4.22;;
22449;SDS011;11392;57.390;-2.468;2023-08-12T12:17:55;7.53;;;3.30;;
22449;SDS011;11392;57.390;-2.468;2023-08-12T12:20:22;8.23;;;2.90;;
22449;SDS011;11392;57.390;-2.468;2023-08-12T12:22:50;10.18;;;3.42;;
22449;SDS011;11392;57.390;-2.468;2023-08-12T12:25:17;7.32;;;3.47;;
22449;SDS011;11392;57.390;-2.468;2023-08-12T12:27:47;7.40;;;2.78;;
22449;SDS011;11392;57.390;-2.468;2023-08-12T12:30:14;6.63;;;3.30;;
22449;SDS011;11392;57.390;-2.468;2023-08-12T12:32:42;8.98;;;2.80;;
22449;SDS011;11392;57.390;-2.468;2023-08-12T12:35:10;9.20;;;2.90;;
22449;SDS011;11392;57.390;-2.468;2023-08-12T12:37:38;7.15;;;2.53;;
22449;SDS011;11392;57.390;-2.468;2023-08-12T12:40:05;7.97;;;2.80;;
22449;SDS011;11392;57.390;-2.468;2023-08-12T12:42:33;5.93;;;2.88;;
22449;SDS011;11392;57.390;-2.468;2023-08-12T12:45:00;8.70;;;2.92;;
22449;SDS011;11392;57.390;-2.468;2023-08-12T12:47:28;6.60;;;2.45;;
22449;SDS011;11392;57.390;-2.468;2023-08-12T12:49:55;9.40;;;2.95;;
22449;SDS011;11392;57.390;-2.468;2023-08-12T12:52:22;6.38;;;2.88;;
22449;SDS011;11392;57.390;-2.468;2023-08-12T12:54:50;9.77;;;2.90;;
22449;SDS011;11392;57.390;-2.468;2023-08-12T12:57:17;6.57;;;2.80;;
22449;SDS011;11392;57.390;-2.468;2023-08-12T12:59:44;9.15;;;2.83;;
22449;SDS011;11392;57.390;-2.468;2023-08-12T13:02:11;7.35;;;2.70;;
22449;SDS011;11392;57.390;-2.468;2023-08-12T13:04:38;5.65;;;2.63;;
22449;SDS011;11392;57.390;-2.468;2023-08-12T13:07:05;9.27;;;3.22;;
22449;SDS011;11392;57.390;-2.468;2023-08-12T13:09:32;10.80;;;3.03;;
22449;SDS011;11392;57.390;-2.468;2023-08-12T13:12:00;8.18;;;2.65;;
22449;SDS011;11392;57.390;-2.468;2023-08-12T13:14:27;12.00;;;3.45;;
22449;SDS011;11392;57.390;-2.468;2023-08-12T13:16:56;9.73;;;3.90;;
22449;SDS011;11392;57.390;-2.468;2023-08-12T13:19:24;8.13;;;3.22;;
22449;SDS011;11392;57.390;-2.468;2023-08-12T13:21:51;9.85;;;2.90;;
22449;SDS011;11392;57.390;-2.468;2023-08-12T13:24:18;9.77;;;2.60;;
22449;SDS011;11392;57.390;-2.468;2023-08-12T13:26:46;6.35;;;2.40;;
22449;SDS011;11392;57.390;-2.468;2023-08-12T13:29:13;4.82;;;2.33;;
22449;SDS011;11392;57.390;-2.468;2023-08-12T13:31:40;8.07;;;2.45;;
22449;SDS011;11392;57.390;-2.468;2023-08-12T13:34:07;5.55;;;2.58;;
22449;SDS011;11392;57.390;-2.468;2023-08-12T13:36:35;5.97;;;2.10;;
22449;SDS011;11392;57.390;-2.468;2023-08-12T13:39:02;6.38;;;2.83;;
22449;SDS011;11392;57.390;-2.468;2023-08-12T13:41:29;3.55;;;1.90;;
22449;SDS011;11392;57.390;-2.468;2023-08-12T13:43:56;6.00;;;2.38;;
22449;SDS011;11392;57.390;-2.468;2023-08-12T13:46:24;6.50;;;2.25;;
22449;SDS011;11392;57.390;-2.468;2023-08-12T13:48:51;5.93;;;2.00;;
22449;SDS011;11392;57.390;-2.468;2023-08-12T13:51:19;6.93;;;2.20;;
22449;SDS011;11392;57.390;-2.468;2023-08-12T13:53:46;8.98;;;2.60;;
22449;SDS011;11392;57.390;-2.468;2023-08-12T13:56:13;7.93;;;2.60;;
22449;SDS011;11392;57.390;-2.468;2023-08-12T13:58:41;11.35;;;2.60;;
22449;SDS011;11392;57.390;-2.468;2023-08-12T14:01:09;6.85;;;3.10;;
22449;SDS011;11392;57.390;-2.468;2023-08-12T14:03:36;5.88;;;1.75;;
22449;SDS011;11392;57.390;-2.468;2023-08-12T14:06:03;7.97;;;2.33;;
22449;SDS011;11392;57.390;-2.468;2023-08-12T14:08:31;3.70;;;1.70;;
22449;SDS011;11392;57.390;-2.468;2023-08-12T14:11:00;5.15;;;2.00;;
22449;SDS011;11392;57.390;-2.468;2023-08-12T14:13:27;4.78;;;1.88;;
22449;SDS011;11392;57.390;-2.468;2023-08-12T14:15:54;8.98;;;2.40;;
22449;SDS011;11392;57.390;-2.468;2023-08-12T14:18:21;4.90;;;2.05;;
22449;SDS011;11392;57.390;-2.468;2023-08-12T14:20:48;7.80;;;2.40;;
22449;SDS011;11392;57.390;-2.468;2023-08-12T14:23:15;5.50;;;2.33;;
22449;SDS011;11392;57.390;-2.468;2023-08-12T14:25:42;7.28;;;2.05;;
22449;SDS011;11392;57.390;-2.468;2023-08-12T14:28:09;8.77;;;2.22;;
22449;SDS011;11392;57.390;-2.468;2023-08-12T14:30:36;6.45;;;2.00;;
22449;SDS011;11392;57.390;-2.468;2023-08-12T14:33:04;5.72;;;2.00;;
22449;SDS011;11392;57.390;-2.468;2023-08-12T14:35:33;9.65;;;2.05;;